createdAt,value
2019-01-05T00:00:25.521Z,949.09
2019-01-05T00:01:25.936Z,948.99
2019-01-05T00:02:26.359Z,948.97
2019-01-05T00:03:26.779Z,948.95
2019-01-05T00:04:27.750Z,948.89
2019-01-05T00:05:27.999Z,948.85
2019-01-05T00:06:28.412Z,948.95
2019-01-05T00:07:29.546Z,948.91
2019-01-05T00:08:29.958Z,948.87
2019-01-05T00:09:30.379Z,948.85
2019-01-05T00:10:31.491Z,948.84
2019-01-05T00:11:31.938Z,948.84
2019-01-05T00:12:32.905Z,948.82
2019-01-05T00:13:33.598Z,948.83
2019-01-05T00:14:34.012Z,948.82
2019-01-05T00:15:34.985Z,948.77
2019-01-05T00:16:35.409Z,948.76
2019-01-05T00:17:35.821Z,948.78
2019-01-05T00:18:36.234Z,948.72
2019-01-05T00:19:37.505Z,948.67
2019-01-05T00:20:38.693Z,948.71
2019-01-05T00:21:39.659Z,948.74
2019-01-05T00:22:40.353Z,948.71
2019-01-05T00:23:40.770Z,948.69
2019-01-05T00:24:41.904Z,948.72
2019-01-05T00:25:42.594Z,948.6
2019-01-05T00:26:43.731Z,948.61
2019-01-05T00:27:45.144Z,948.54
2019-01-05T00:28:45.836Z,948.62
2019-01-05T00:29:46.085Z,948.59
2019-01-05T00:30:47.214Z,948.63
2019-01-05T00:31:47.627Z,948.59
2019-01-05T00:32:48.317Z,948.63
2019-01-05T00:33:48.737Z,948.6
2019-01-05T00:34:49.151Z,948.57
2019-01-05T00:35:49.841Z,948.52
2019-01-05T00:36:50.257Z,948.53
2019-01-05T00:37:51.394Z,948.52
2019-01-05T00:38:52.086Z,948.54
2019-01-05T00:39:52.499Z,948.47
2019-01-05T00:40:53.675Z,948.45
2019-01-05T00:41:54.140Z,948.5
2019-01-05T00:42:54.388Z,948.47
2019-01-05T00:43:54.803Z,948.5
2019-01-05T00:44:55.772Z,948.55
2019-01-05T00:45:56.741Z,948.61
2019-01-05T00:46:57.157Z,948.57
2019-01-05T00:47:57.858Z,948.66
2019-01-05T00:48:58.102Z,948.69
2019-01-05T00:49:58.515Z,948.65
2019-01-05T00:50:58.801Z,948.62
2019-01-05T00:51:59.489Z,948.58
2019-01-05T00:53:00.180Z,948.52
2019-01-05T00:54:00.871Z,948.49
2019-01-05T00:55:01.308Z,948.52
2019-01-05T00:56:01.750Z,948.53
2019-01-05T00:57:02.168Z,948.61
2019-01-05T00:58:02.584Z,948.54
2019-01-05T00:59:03.002Z,948.52
2019-01-05T01:00:03.692Z,948.53
2019-01-05T01:01:04.795Z,948.55
2019-01-05T01:02:06.204Z,948.52
2019-01-05T01:03:07.447Z,948.48
2019-01-05T01:04:07.968Z,948.38
2019-01-05T01:05:08.398Z,948.35
2019-01-05T01:06:09.360Z,948.37
2019-01-05T01:07:10.043Z,948.4
2019-01-05T01:08:11.010Z,948.31
2019-01-05T01:09:12.138Z,948.33
2019-01-05T01:10:12.826Z,948.3
2019-01-05T01:11:13.372Z,948.32
2019-01-05T01:12:14.058Z,948.39
2019-01-05T01:13:15.187Z,948.37
2019-01-05T01:14:15.874Z,948.34
2019-01-05T01:15:16.562Z,948.35
2019-01-05T01:16:17.969Z,948.41
2019-01-05T01:17:18.655Z,948.43
2019-01-05T01:18:19.064Z,948.41
2019-01-05T01:19:20.195Z,948.48
2019-01-05T01:20:21.161Z,948.45
2019-01-05T01:21:21.833Z,948.4
2019-01-05T01:22:22.400Z,948.42
2019-01-05T01:23:23.086Z,948.46
2019-01-05T01:24:24.050Z,948.42
2019-01-05T01:25:24.476Z,948.51
2019-01-05T01:26:25.160Z,948.5
2019-01-05T01:27:25.882Z,948.5
2019-01-05T01:28:26.565Z,948.46
2019-01-05T01:29:27.529Z,948.49
2019-01-05T01:30:28.773Z,948.44
2019-01-05T01:31:29.912Z,948.49
2019-01-05T01:32:30.599Z,948.45
2019-01-05T01:33:31.562Z,948.53
2019-01-05T01:34:31.968Z,948.55
2019-01-05T01:35:32.376Z,948.55
2019-01-05T01:36:33.339Z,948.51
2019-01-05T01:37:33.749Z,948.58
2019-01-05T01:38:34.433Z,948.53
2019-01-05T01:39:35.119Z,948.52
2019-01-05T01:40:35.806Z,948.52
2019-01-05T01:41:36.205Z,948.56
2019-01-05T01:42:36.894Z,948.55
2019-01-05T01:43:37.580Z,948.54
2019-01-05T01:44:38.271Z,948.51
2019-01-05T01:45:38.957Z,948.49
2019-01-05T01:46:39.646Z,948.44
2019-01-05T01:47:40.611Z,948.49
2019-01-05T01:48:41.019Z,948.53
2019-01-05T01:49:41.703Z,948.44
2019-01-05T01:50:42.840Z,948.49
2019-01-05T01:51:43.511Z,948.46
2019-01-05T01:52:43.752Z,948.48
2019-01-05T01:53:44.014Z,948.48
2019-01-05T01:54:44.698Z,948.46
2019-01-05T01:55:45.105Z,948.46
2019-01-05T01:56:45.794Z,948.51
2019-01-05T01:57:46.202Z,948.46
2019-01-05T01:58:46.449Z,948.38
2019-01-05T01:59:47.685Z,948.47
2019-01-05T02:00:48.095Z,948.54
2019-01-05T02:01:49.208Z,948.44
2019-01-05T02:02:49.613Z,948.45
2019-01-05T02:03:50.027Z,948.43
2019-01-05T02:04:50.436Z,948.4
2019-01-05T02:05:51.401Z,948.42
2019-01-05T02:06:52.649Z,948.43
2019-01-05T02:07:53.336Z,948.39
2019-01-05T02:08:54.055Z,948.35
2019-01-05T02:09:54.294Z,948.4
2019-01-05T02:10:54.813Z,948.37
2019-01-05T02:11:55.488Z,948.39
2019-01-05T02:12:56.453Z,948.31
2019-01-05T02:13:57.426Z,948.35
2019-01-05T02:14:57.833Z,948.45
2019-01-05T02:15:58.240Z,948.42
2019-01-05T02:16:58.924Z,948.4
2019-01-05T02:18:00.334Z,948.38
2019-01-05T02:19:01.025Z,948.33
2019-01-05T02:20:01.992Z,948.27
2019-01-05T02:21:02.412Z,948.29
2019-01-05T02:22:03.522Z,948.22
2019-01-05T02:23:04.213Z,948.23
2019-01-05T02:24:05.339Z,948.17
2019-01-05T02:25:05.583Z,948.18
2019-01-05T02:26:06.264Z,948.15
2019-01-05T02:27:06.672Z,948.14
2019-01-05T02:28:07.084Z,948.17
2019-01-05T02:29:08.367Z,948.06
2019-01-05T02:30:09.338Z,948.1
2019-01-05T02:31:10.590Z,948.03
2019-01-05T02:32:11.253Z,948.02
2019-01-05T02:33:11.954Z,948.04
2019-01-05T02:34:12.920Z,948.01
2019-01-05T02:35:14.064Z,948.03
2019-01-05T02:36:14.773Z,948.1
2019-01-05T02:37:15.180Z,948.06
2019-01-05T02:38:16.018Z,948.03
2019-01-05T02:39:16.727Z,948.05
2019-01-05T02:40:17.819Z,948.02
2019-01-05T02:41:18.509Z,948
2019-01-05T02:42:19.635Z,947.94
2019-01-05T02:43:20.599Z,947.95
2019-01-05T02:44:21.403Z,947.9
2019-01-05T02:45:22.850Z,947.91
2019-01-05T02:46:23.812Z,948
2019-01-05T02:47:24.502Z,947.91
2019-01-05T02:48:25.296Z,947.95
2019-01-05T02:49:26.267Z,947.91
2019-01-05T02:50:27.678Z,947.83
2019-01-05T02:51:28.086Z,947.92
2019-01-05T02:52:28.464Z,947.85
2019-01-05T02:53:29.424Z,947.75
2019-01-05T02:54:29.673Z,947.75
2019-01-05T02:55:30.364Z,947.68
2019-01-05T02:56:30.916Z,947.62
2019-01-05T02:57:32.043Z,947.66
2019-01-05T02:58:33.012Z,947.59
2019-01-05T02:59:33.468Z,947.54
2019-01-05T03:00:34.161Z,947.57
2019-01-05T03:01:34.679Z,947.58
2019-01-05T03:02:35.049Z,947.53
2019-01-05T03:03:36.132Z,947.58
2019-01-05T03:04:36.823Z,947.47
2019-01-05T03:05:37.791Z,947.5
2019-01-05T03:06:39.040Z,947.42
2019-01-05T03:07:40.118Z,947.47
2019-01-05T03:08:41.124Z,947.38
2019-01-05T03:09:41.650Z,947.42
2019-01-05T03:10:41.900Z,947.41
2019-01-05T03:11:42.392Z,947.38
2019-01-05T03:12:43.339Z,947.35
2019-01-05T03:13:44.308Z,947.39
2019-01-05T03:14:45.294Z,947.42
2019-01-05T03:14:57.217Z,947.42
2019-01-05T03:15:58.442Z,947.41
2019-01-05T03:16:59.403Z,947.38
2019-01-05T03:18:00.648Z,947.37
2019-01-05T03:19:01.334Z,947.3
2019-01-05T03:20:02.039Z,947.29
2019-01-05T03:21:02.826Z,947.29
2019-01-05T03:22:04.242Z,947.27
2019-01-05T03:23:04.931Z,947.34
2019-01-05T03:24:05.895Z,947.37
2019-01-05T03:25:07.026Z,947.38
2019-01-05T03:26:07.701Z,947.42
2019-01-05T03:27:08.495Z,947.37
2019-01-05T03:28:09.190Z,947.28
2019-01-05T03:29:09.999Z,947.3
2019-01-05T03:30:10.691Z,947.32
2019-01-05T03:31:12.226Z,947.23
2019-01-05T03:32:12.954Z,947.22
2019-01-05T03:33:13.830Z,947.18
2019-01-05T03:34:14.363Z,947.11
2019-01-05T03:35:15.335Z,947.12
2019-01-05T03:36:16.444Z,947.1
2019-01-05T03:37:16.988Z,947.09
2019-01-05T03:38:18.249Z,947.03
2019-01-05T03:39:18.942Z,947.03
2019-01-05T03:40:19.922Z,947.01
2019-01-05T03:41:20.905Z,947.02
2019-01-05T03:42:21.150Z,947.01
2019-01-05T03:43:21.395Z,946.96
2019-01-05T03:44:21.912Z,946.95
2019-01-05T03:45:22.914Z,946.9
2019-01-05T03:46:23.453Z,946.87
2019-01-05T03:47:24.137Z,946.84
2019-01-05T03:48:24.545Z,946.85
2019-01-05T03:49:25.519Z,946.77
2019-01-05T03:50:25.928Z,946.76
2019-01-05T03:51:26.903Z,946.75
2019-01-05T03:52:27.592Z,946.73
2019-01-05T03:53:28.000Z,946.77
2019-01-05T03:54:28.413Z,946.78
2019-01-05T03:55:28.943Z,946.8
2019-01-05T03:56:29.764Z,946.79
2019-01-05T03:57:30.181Z,946.78
2019-01-05T03:58:31.307Z,946.74
2019-01-05T03:59:32.552Z,946.7
2019-01-05T04:00:33.244Z,946.7
2019-01-05T04:01:33.931Z,946.65
2019-01-05T04:02:34.461Z,946.62
2019-01-05T04:03:35.149Z,946.57
2019-01-05T04:04:35.558Z,946.59
2019-01-05T04:05:36.074Z,946.58
2019-01-05T04:06:37.050Z,946.56
2019-01-05T04:07:37.734Z,946.51
2019-01-05T04:08:38.894Z,946.57
2019-01-05T04:09:39.581Z,946.6
2019-01-05T04:10:40.151Z,946.5
2019-01-05T04:11:40.674Z,946.52
2019-01-05T04:12:41.094Z,946.48
2019-01-05T04:13:41.504Z,946.51
2019-01-05T04:14:42.194Z,946.49
2019-01-05T04:15:43.155Z,946.54
2019-01-05T04:16:43.703Z,946.52
2019-01-05T04:17:44.115Z,946.49
2019-01-05T04:18:45.351Z,946.49
2019-01-05T04:19:46.047Z,946.44
2019-01-05T04:20:46.298Z,946.42
2019-01-05T04:21:46.981Z,946.41
2019-01-05T04:22:48.110Z,946.41
2019-01-05T04:23:49.075Z,946.35
2019-01-05T04:24:49.762Z,946.32
2019-01-05T04:25:50.889Z,946.32
2019-01-05T04:26:51.991Z,946.33
2019-01-05T04:27:53.240Z,946.31
2019-01-05T04:28:53.928Z,946.43
2019-01-05T04:29:54.935Z,946.46
2019-01-05T04:30:55.899Z,946.39
2019-01-05T04:31:56.306Z,946.41
2019-01-05T04:32:56.829Z,946.39
2019-01-05T04:33:57.517Z,946.35
2019-01-05T04:34:58.495Z,946.4
2019-01-05T04:35:59.040Z,946.4
2019-01-05T04:36:59.877Z,946.38
2019-01-05T04:38:00.842Z,946.33
2019-01-05T04:39:01.807Z,946.3
2019-01-05T04:40:02.774Z,946.35
2019-01-05T04:41:03.299Z,946.33
2019-01-05T04:42:04.275Z,946.32
2019-01-05T04:43:04.962Z,946.26
2019-01-05T04:44:06.208Z,946.22
2019-01-05T04:45:06.615Z,946.26
2019-01-05T04:46:07.024Z,946.24
2019-01-05T04:47:07.870Z,946.29
2019-01-05T04:48:08.834Z,946.28
2019-01-05T04:49:10.097Z,946.32
2019-01-05T04:50:10.782Z,946.33
2019-01-05T04:51:11.189Z,946.25
2019-01-05T04:52:11.429Z,946.22
2019-01-05T04:53:12.391Z,946.17
2019-01-05T04:54:13.353Z,946.18
2019-01-05T04:55:13.600Z,946.17
2019-01-05T04:56:14.289Z,946.12
2019-01-05T04:57:15.255Z,946.07
2019-01-05T04:58:16.384Z,946.04
2019-01-05T04:59:16.857Z,946.04
2019-01-05T05:01:18.137Z,945.93
2019-01-05T05:02:19.264Z,945.9
2019-01-05T05:03:20.228Z,945.9
2019-01-05T05:04:20.912Z,945.83
2019-01-05T05:05:21.595Z,945.83
2019-01-05T05:06:22.282Z,945.77
2019-01-05T05:07:22.652Z,945.77
2019-01-05T05:08:23.059Z,945.73
2019-01-05T05:09:24.509Z,945.66
2019-01-05T05:10:25.026Z,945.66
2019-01-05T05:11:25.714Z,945.59
2019-01-05T05:12:26.421Z,945.61
2019-01-05T05:13:27.107Z,945.57
2019-01-05T05:14:28.096Z,945.62
2019-01-05T05:15:29.887Z,945.55
2019-01-05T05:16:30.308Z,945.55
2019-01-05T05:17:31.265Z,945.52
2019-01-05T05:18:31.963Z,945.55
2019-01-05T05:19:32.947Z,945.48
2019-01-05T05:20:33.646Z,945.47
2019-01-05T05:21:33.889Z,945.48
2019-01-05T05:22:35.826Z,945.55
2019-01-05T05:23:34.568Z,945.6
2019-01-05T05:24:35.531Z,945.63
2019-01-05T05:25:36.775Z,945.65
2019-01-05T05:26:37.182Z,945.62
2019-01-05T05:27:37.830Z,945.55
2019-01-05T05:28:38.799Z,945.53
2019-01-05T05:29:39.766Z,945.53
2019-01-05T05:30:40.742Z,945.55
2019-01-05T05:31:41.874Z,945.46
2019-01-05T05:32:42.406Z,945.4
2019-01-05T05:33:43.099Z,945.39
2019-01-05T05:34:43.339Z,945.3
2019-01-05T05:35:44.313Z,945.35
2019-01-05T05:36:44.725Z,945.33
2019-01-05T05:37:45.265Z,945.33
2019-01-05T05:38:45.512Z,945.32
2019-01-05T05:39:46.478Z,945.29
2019-01-05T05:40:47.164Z,945.3
2019-01-05T05:41:48.166Z,945.25
2019-01-05T05:42:48.856Z,945.3
2019-01-05T05:43:49.377Z,945.21
2019-01-05T05:44:49.642Z,945.19
2019-01-05T05:45:50.914Z,945.23
2019-01-05T05:46:51.597Z,945.29
2019-01-05T05:47:52.016Z,945.34
2019-01-05T05:48:52.992Z,945.39
2019-01-05T05:49:53.402Z,945.36
2019-01-05T05:50:54.363Z,945.39
2019-01-05T05:51:54.772Z,945.39
2019-01-05T05:52:55.460Z,945.4
2019-01-05T05:53:55.709Z,945.39
2019-01-05T05:54:56.980Z,945.37
2019-01-05T05:55:57.666Z,945.42
2019-01-05T05:56:58.799Z,945.41
2019-01-05T05:57:59.912Z,945.41
2019-01-05T05:59:01.043Z,945.41
2019-01-05T06:00:02.177Z,945.38
2019-01-05T06:01:02.415Z,945.42
2019-01-05T06:02:02.832Z,945.45
2019-01-05T06:03:03.515Z,945.52
2019-01-05T06:04:04.646Z,945.52
2019-01-05T06:05:05.059Z,945.6
2019-01-05T06:06:05.469Z,945.6
2019-01-05T06:07:05.896Z,945.59
2019-01-05T06:08:07.014Z,945.6
2019-01-05T06:09:07.708Z,945.66
2019-01-05T06:10:08.398Z,945.7
2019-01-05T06:11:09.091Z,945.69
2019-01-05T06:12:10.061Z,945.7
2019-01-05T06:13:10.473Z,945.74
2019-01-05T06:14:10.877Z,945.74
2019-01-05T06:15:12.282Z,945.78
2019-01-05T06:16:12.687Z,945.78
2019-01-05T06:17:13.817Z,945.8
2019-01-05T06:18:14.364Z,945.79
2019-01-05T06:19:15.495Z,945.87
2019-01-05T06:20:16.737Z,945.91
2019-01-05T06:21:17.700Z,946
2019-01-05T06:22:18.829Z,945.96
2019-01-05T06:23:19.956Z,946.1
2019-01-05T06:24:20.643Z,945.99
2019-01-05T06:25:21.330Z,946.02
2019-01-05T06:26:21.590Z,946.15
2019-01-05T06:27:22.722Z,946.12
2019-01-05T06:28:23.496Z,946.18
2019-01-05T06:29:24.176Z,946.23
2019-01-05T06:30:24.872Z,946.2
2019-01-05T06:31:25.836Z,946.16
2019-01-05T06:32:26.244Z,946.26
2019-01-05T06:33:26.652Z,946.29
2019-01-05T06:34:26.891Z,946.37
2019-01-05T06:35:27.856Z,946.32
2019-01-05T06:36:28.987Z,946.38
2019-01-05T06:37:30.114Z,946.29
2019-01-05T06:38:31.505Z,946.31
2019-01-05T06:39:32.916Z,946.24
2019-01-05T06:40:34.045Z,946.3
2019-01-05T06:41:34.733Z,946.23
2019-01-05T06:42:35.694Z,946.23
2019-01-05T06:43:36.102Z,946.17
2019-01-05T06:44:37.067Z,946.21
2019-01-05T06:45:37.474Z,946.26
2019-01-05T06:46:38.161Z,946.26
2019-01-05T06:47:38.572Z,946.16
2019-01-05T06:48:39.100Z,946.2
2019-01-05T06:49:39.510Z,946.23
2019-01-05T06:50:40.197Z,946.24
2019-01-05T06:51:41.607Z,946.2
2019-01-05T06:52:42.301Z,946.12
2019-01-05T06:53:42.709Z,946.21
2019-01-05T06:54:43.674Z,946.1
2019-01-05T06:55:44.917Z,946.1
2019-01-05T06:56:45.879Z,946.04
2019-01-05T06:57:46.288Z,946.07
2019-01-05T06:58:46.822Z,946.08
2019-01-05T06:59:47.953Z,946.07
2019-01-05T07:00:48.639Z,946.1
2019-01-05T07:01:49.606Z,946.11
2019-01-05T07:02:50.294Z,946.12
2019-01-05T07:03:51.257Z,946.14
2019-01-05T07:04:51.662Z,946.11
2019-01-05T07:05:52.793Z,946.19
2019-01-05T07:06:53.922Z,946.18
2019-01-05T07:07:54.331Z,946.22
2019-01-05T07:08:55.169Z,946.16
2019-01-05T07:09:56.414Z,946.15
2019-01-05T07:10:57.379Z,946.21
2019-01-05T07:11:58.067Z,946.12
2019-01-05T07:12:59.195Z,946.21
2019-01-05T07:13:59.718Z,946.22
2019-01-05T07:15:00.433Z,946.23
2019-01-05T07:16:01.174Z,946.17
2019-01-05T07:17:01.861Z,946.2
2019-01-05T07:18:02.830Z,946.12
2019-01-05T07:19:03.087Z,946.17
2019-01-05T07:20:04.219Z,946.17
2019-01-05T07:21:05.181Z,946.24
2019-01-05T07:22:05.869Z,946.14
2019-01-05T07:23:06.284Z,946.12
2019-01-05T07:24:06.694Z,946.12
2019-01-05T07:25:08.112Z,946.11
2019-01-05T07:26:09.087Z,946.1
2019-01-05T07:27:09.495Z,946.09
2019-01-05T07:28:09.906Z,946.1
2019-01-05T07:29:11.022Z,946
2019-01-05T07:30:11.436Z,946.05
2019-01-05T07:31:11.847Z,946.11
2019-01-05T07:32:12.256Z,946.07
2019-01-05T07:33:12.670Z,946.11
2019-01-05T07:34:13.083Z,946.07
2019-01-05T07:35:13.767Z,946.11
2019-01-05T07:36:14.907Z,946.08
2019-01-05T07:37:16.043Z,946.05
2019-01-05T07:38:16.455Z,946.1
2019-01-05T07:39:17.001Z,946.14
2019-01-05T07:40:18.410Z,946.04
2019-01-05T07:41:18.820Z,946.08
2019-01-05T07:42:19.954Z,946.08
2019-01-05T07:43:20.365Z,946.05
2019-01-05T07:44:20.775Z,946.09
2019-01-05T07:45:21.470Z,946.05
2019-01-05T07:46:21.884Z,946.01
2019-01-05T07:47:22.577Z,946.01
2019-01-05T07:48:23.707Z,946
2019-01-05T07:49:24.106Z,946.07
2019-01-05T07:50:24.818Z,946.03
2019-01-05T07:51:25.234Z,946.02
2019-01-05T07:52:26.365Z,946
2019-01-05T07:53:27.501Z,946
2019-01-05T07:54:28.190Z,946.04
2019-01-05T07:55:28.437Z,946.07
2019-01-05T07:56:29.572Z,946.04
2019-01-05T07:57:29.986Z,945.99
2019-01-05T07:58:30.677Z,946
2019-01-05T07:59:31.525Z,946.05
2019-01-05T08:00:32.225Z,946.05
2019-01-05T08:01:32.637Z,946.04
2019-01-05T08:02:33.326Z,946.1
2019-01-05T08:03:33.735Z,946.08
2019-01-05T08:04:34.872Z,946.05
2019-01-05T08:05:35.562Z,946.06
2019-01-05T08:06:35.971Z,946.06
2019-01-05T08:07:36.385Z,946.03
2019-01-05T08:08:37.180Z,946.04
2019-01-05T08:09:37.718Z,946.03
2019-01-05T08:10:38.687Z,945.96
2019-01-05T08:11:39.103Z,945.99
2019-01-05T08:12:39.792Z,945.97
2019-01-05T08:13:40.213Z,945.99
2019-01-05T08:14:40.896Z,945.97
2019-01-05T08:15:41.310Z,945.95
2019-01-05T08:16:42.002Z,945.94
2019-01-05T08:17:42.693Z,945.94
2019-01-05T08:18:44.107Z,946
2019-01-05T08:19:45.228Z,945.99
2019-01-05T08:20:46.194Z,945.9
2019-01-05T08:21:46.884Z,945.87
2019-01-05T08:22:47.575Z,945.9
2019-01-05T08:23:47.994Z,945.88
2019-01-05T08:24:48.960Z,945.91
2019-01-05T08:25:50.096Z,945.89
2019-01-05T08:26:50.784Z,945.88
2019-01-05T08:27:51.195Z,945.91
2019-01-05T08:28:51.927Z,945.91
2019-01-05T08:29:53.069Z,945.95
2019-01-05T08:30:54.205Z,945.9
2019-01-05T08:31:55.338Z,945.89
2019-01-05T08:32:56.033Z,945.9
2019-01-05T08:33:57.001Z,945.88
2019-01-05T08:34:57.692Z,945.93
2019-01-05T08:35:58.108Z,945.88
2019-01-05T08:36:58.806Z,945.87
2019-01-05T08:37:59.945Z,945.85
2019-01-05T08:39:00.356Z,945.84
2019-01-05T08:40:01.486Z,945.79
2019-01-05T08:41:02.179Z,945.88
2019-01-05T08:42:02.587Z,945.74
2019-01-05T08:43:02.996Z,945.75
2019-01-05T08:44:03.691Z,945.7
2019-01-05T08:45:04.107Z,945.77
2019-01-05T08:46:05.075Z,945.72
2019-01-05T08:47:06.235Z,945.77
2019-01-05T08:48:06.925Z,945.81
2019-01-05T08:49:07.898Z,945.75
2019-01-05T08:50:09.010Z,945.79
2019-01-05T08:51:10.146Z,945.86
2019-01-05T08:52:10.557Z,945.76
2019-01-05T08:53:11.691Z,945.79
2019-01-05T08:54:12.108Z,945.78
2019-01-05T08:55:13.248Z,945.71
2019-01-05T08:56:14.198Z,945.76
2019-01-05T08:57:16.095Z,945.77
2019-01-05T08:58:18.380Z,945.75
2019-01-05T08:59:18.906Z,945.69
2019-01-05T09:00:20.019Z,945.74
2019-01-05T09:01:20.431Z,945.75
2019-01-05T09:02:21.794Z,945.78
2019-01-05T09:03:22.269Z,945.76
2019-01-05T09:04:23.241Z,945.78
2019-01-05T09:05:25.683Z,945.69
2019-01-05T09:06:25.797Z,945.65
2019-01-05T09:07:26.934Z,945.71
2019-01-05T09:08:27.345Z,945.74
2019-01-05T09:09:28.758Z,945.67
2019-01-05T09:10:28.988Z,945.81
2019-01-05T09:11:29.680Z,945.82
2019-01-05T09:12:30.821Z,945.82
2019-01-05T09:13:32.595Z,945.77
2019-01-05T09:14:33.006Z,945.63
2019-01-05T09:15:33.976Z,945.72
2019-01-05T09:16:34.666Z,945.63
2019-01-05T09:17:35.077Z,945.65
2019-01-05T09:18:35.491Z,945.72
2019-01-05T09:19:36.184Z,945.73
2019-01-05T09:20:37.011Z,945.7
2019-01-05T09:21:38.147Z,945.7
2019-01-05T09:22:38.562Z,945.76
2019-01-05T09:23:39.703Z,945.68
2019-01-05T09:24:40.160Z,945.72
2019-01-05T09:25:42.423Z,945.65
2019-01-05T09:26:43.114Z,945.6
2019-01-05T09:27:43.813Z,945.56
2019-01-05T09:28:45.063Z,945.59
2019-01-05T09:29:45.755Z,945.61
2019-01-05T09:30:46.154Z,945.59
2019-01-05T09:31:47.290Z,945.48
2019-01-05T09:32:48.538Z,945.42
2019-01-05T09:33:49.783Z,945.5
2019-01-05T09:34:50.917Z,945.53
2019-01-05T09:35:53.081Z,945.51
2019-01-05T09:36:53.541Z,945.51
2019-01-05T09:37:54.263Z,945.41
2019-01-05T09:38:54.955Z,945.41
2019-01-05T09:39:55.648Z,945.48
2019-01-05T09:40:56.190Z,945.45
2019-01-05T09:41:57.169Z,945.48
2019-01-05T09:42:57.618Z,945.55
2019-01-05T09:43:58.754Z,945.53
2019-01-05T09:44:59.728Z,945.45
2019-01-05T09:46:00.979Z,945.52
2019-01-05T09:47:02.116Z,945.56
2019-01-05T09:48:02.821Z,945.55
2019-01-05T09:49:03.235Z,945.58
2019-01-05T09:50:04.483Z,945.56
2019-01-05T09:51:05.324Z,945.59
2019-01-05T09:52:06.061Z,945.53
2019-01-05T09:53:06.482Z,945.59
2019-01-05T09:54:07.450Z,945.61
2019-01-05T09:55:08.585Z,945.61
2019-01-05T09:56:08.833Z,945.55
2019-01-05T09:57:09.525Z,945.51
2019-01-05T09:58:09.942Z,945.48
2019-01-05T09:59:10.635Z,945.4
2019-01-05T10:00:11.605Z,945.31
2019-01-05T10:01:12.263Z,945.29
2019-01-05T10:02:12.679Z,945.39
2019-01-05T10:03:13.096Z,945.35
2019-01-05T10:04:14.238Z,945.37
2019-01-05T10:05:15.425Z,945.15
2019-01-05T10:06:15.854Z,945.16
2019-01-05T10:07:16.829Z,945.15
2019-01-05T10:08:17.523Z,945.13
2019-01-05T10:09:18.493Z,945.1
2019-01-05T10:10:19.630Z,945.05
2019-01-05T10:11:20.256Z,945.13
2019-01-05T10:12:20.949Z,945.13
2019-01-05T10:13:23.002Z,944.97
2019-01-05T10:13:33.950Z,944.97
2019-01-05T10:13:46.322Z,944.94
2019-01-05T10:14:46.242Z,945.05
2019-01-05T10:15:46.662Z,945.01
2019-01-05T10:16:47.796Z,944.93
2019-01-05T10:17:48.217Z,944.92
2019-01-05T10:18:49.357Z,944.96
2019-01-05T10:19:50.046Z,944.98
2019-01-05T10:20:50.765Z,944.95
2019-01-05T10:21:52.015Z,944.87
2019-01-05T10:22:52.433Z,944.87
2019-01-05T10:23:53.585Z,944.97
2019-01-05T10:24:54.412Z,944.9
2019-01-05T10:25:55.105Z,944.92
2019-01-05T10:26:55.521Z,945.03
2019-01-05T10:27:56.492Z,944.93
2019-01-05T10:28:57.461Z,944.82
2019-01-05T10:29:58.597Z,944.91
2019-01-05T10:30:59.385Z,945.01
2019-01-05T10:31:59.810Z,945
2019-01-05T10:33:00.492Z,945.02
2019-01-05T10:34:01.211Z,944.94
2019-01-05T10:35:02.321Z,945
2019-01-05T10:36:04.502Z,944.9
2019-01-05T10:36:16.594Z,944.9
2019-01-05T10:36:28.994Z,944.93
2019-01-05T10:36:40.874Z,944.91
2019-01-05T10:36:52.813Z,945
2019-01-05T10:37:05.915Z,944.98
2019-01-05T10:37:18.317Z,944.99
2019-01-05T10:37:30.301Z,945.1
2019-01-05T10:38:31.488Z,945.04
2019-01-05T10:38:42.766Z,945.06
2019-01-05T10:38:54.963Z,945.09
2019-01-05T10:39:07.108Z,945.09
2019-01-05T10:39:19.470Z,945.08
2019-01-05T10:39:31.927Z,945.1
2019-01-05T10:40:32.440Z,944.95
2019-01-05T10:41:33.132Z,945.02
2019-01-05T10:42:34.548Z,944.83
2019-01-05T10:43:35.689Z,944.86
2019-01-05T10:44:37.103Z,944.97
2019-01-05T10:45:38.239Z,944.93
2019-01-05T10:46:38.667Z,944.88
2019-01-05T10:47:39.085Z,944.93
2019-01-05T10:48:40.059Z,944.99
2019-01-05T10:49:41.195Z,944.78
2019-01-05T10:50:42.342Z,944.73
2019-01-05T10:51:43.480Z,944.75
2019-01-05T10:52:44.617Z,944.64
2019-01-05T10:53:45.035Z,944.6
2019-01-05T10:54:45.449Z,944.61
2019-01-05T10:55:46.135Z,944.51
2019-01-05T10:56:46.843Z,944.45
2019-01-05T10:57:48.259Z,944.49
2019-01-05T10:58:48.954Z,944.51
2019-01-05T10:59:49.370Z,944.47
2019-01-05T11:00:50.216Z,944.4
2019-01-05T11:01:50.908Z,944.48
2019-01-05T11:02:51.324Z,944.39
2019-01-05T11:03:52.297Z,944.32
2019-01-05T11:04:52.715Z,944.32
2019-01-05T11:05:55.250Z,944.49
2019-01-05T11:06:05.368Z,944.48
2019-01-05T11:07:07.386Z,944.46
2019-01-05T11:08:07.396Z,944.32
2019-01-05T11:09:08.107Z,944.45
2019-01-05T11:10:08.842Z,944.45
2019-01-05T11:11:09.529Z,944.42
2019-01-05T11:12:10.222Z,944.48
2019-01-05T11:13:10.637Z,944.36
2019-01-05T11:14:10.891Z,944.45
2019-01-05T11:15:11.309Z,944.38
2019-01-05T11:16:11.726Z,944.41
2019-01-05T11:17:12.701Z,944.41
2019-01-05T11:18:13.407Z,944.48
2019-01-05T11:19:14.099Z,944.37
2019-01-05T11:20:15.514Z,944.39
2019-01-05T11:21:16.061Z,944.44
2019-01-05T11:22:16.762Z,944.31
2019-01-05T11:23:17.174Z,944.43
2019-01-05T11:24:17.604Z,944.31
2019-01-05T11:25:18.590Z,944.37
2019-01-05T11:26:19.731Z,944.34
2019-01-05T11:27:20.336Z,944.22
2019-01-05T11:28:21.043Z,944.26
2019-01-05T11:29:21.741Z,944.19
2019-01-05T11:30:22.883Z,944.23
2019-01-05T11:31:23.586Z,944.25
2019-01-05T11:32:24.292Z,944.17
2019-01-05T11:33:25.456Z,944.17
2019-01-05T11:34:25.992Z,944.18
2019-01-05T11:35:26.687Z,944.25
2019-01-05T11:36:27.382Z,944.09
2019-01-05T11:37:27.785Z,944.13
2019-01-05T11:38:28.614Z,944.09
2019-01-05T11:39:29.080Z,944.11
2019-01-05T11:40:31.285Z,944.14
2019-01-05T11:41:31.828Z,944.1
2019-01-05T11:42:32.547Z,944.2
2019-01-05T11:43:32.980Z,944.14
2019-01-05T11:44:34.052Z,944.15
2019-01-05T11:45:34.497Z,944.15
2019-01-05T11:46:35.476Z,944.25
2019-01-05T11:47:36.072Z,944.17
2019-01-05T11:48:36.514Z,944.21
2019-01-05T11:49:37.213Z,944.1
2019-01-05T11:50:38.376Z,944.2
2019-01-05T11:51:39.346Z,944.15
2019-01-05T11:52:40.630Z,944.21
2019-01-05T11:53:40.886Z,944.11
2019-01-05T11:54:41.610Z,944.05
2019-01-05T11:55:42.326Z,944.08
2019-01-05T11:56:43.033Z,944.05
2019-01-05T11:57:45.381Z,944.02
2019-01-05T11:57:57.293Z,944.04
2019-01-05T11:58:57.872Z,944
2019-01-05T11:59:58.839Z,944.04
2019-01-05T12:00:59.655Z,944
2019-01-05T12:01:59.937Z,944
2019-01-05T12:03:00.636Z,944.05
2019-01-05T12:04:02.575Z,944.01
2019-01-05T12:04:15.598Z,943.97
2019-01-05T12:05:16.225Z,944.02
2019-01-05T12:06:17.292Z,943.97
2019-01-05T12:07:18.025Z,943.95
2019-01-05T12:08:19.035Z,944.04
2019-01-05T12:09:19.606Z,943.93
2019-01-05T12:10:20.699Z,943.91
2019-01-05T12:11:20.981Z,943.93
2019-01-05T12:12:21.240Z,943.91
2019-01-05T12:13:21.668Z,944.03
2019-01-05T12:14:22.084Z,943.96
2019-01-05T12:15:22.768Z,943.89
2019-01-05T12:16:23.463Z,943.87
2019-01-05T12:17:24.603Z,943.85
2019-01-05T12:18:25.015Z,943.93
2019-01-05T12:19:26.153Z,943.86
2019-01-05T12:20:26.565Z,943.86
2019-01-05T12:21:27.536Z,943.94
2019-01-05T12:22:27.953Z,943.89
2019-01-05T12:23:28.648Z,943.95
2019-01-05T12:24:29.358Z,943.96
2019-01-05T12:25:29.900Z,943.87
2019-01-05T12:26:31.036Z,943.84
2019-01-05T12:27:31.453Z,943.92
2019-01-05T12:28:31.870Z,943.93